X  Sluiten METAR luchtvaart weer gegevens      LIML Milano Linate Airport
Temperatuur
18°C Temperatuur
15°C Dauwpunt
83% Vochtigheid



Wind
5 KM/U
3 MPH
1 M/S
3 KTS



280°
West
Huidig weer

Helder Helder
Luchtdruk 1010.92 (hPa) - 29.85 (inHg)
Zicht 6.2 (mijl) - 10 (km)
Vliegveld
Vliegveld code LIML

Locatie : Milano Linate Airport
Afstand: 100 (km)

Metar:
LIML 050020Z AUTO 28003KT 9999 NCD 18/15 Q1011

Tijd: 05-08-2020 02:20 CEST